CDT,Max TemperatureF,Mean TemperatureF,Min TemperatureF,Max Dew PointF,MeanDew PointF,Min DewpointF,Max Humidity, Mean Humidity, Min Humidity, Max Sea Level PressureIn, Mean Sea Level PressureIn, Min Sea Level PressureIn, Max VisibilityMiles, Mean VisibilityMiles, Min VisibilityMiles, Max Wind SpeedMPH, Mean Wind SpeedMPH, Max Gust SpeedMPH,PrecipitationIn, CloudCover, Events, WindDirDegrees
2012-10-1,64,53,41,53,45,40,100,72,44,29.95,29.89,29.83,10,9,6,10,3,12,0.00,0,,73
2012-10-2,67,59,50,56,51,46,96,72,48,29.91,29.87,29.82,10,10,5,14,6,20,0.01,1,,2
2012-10-3,62,60,58,61,58,57,100,95,90,30.01,29.94,29.88,10,6,1,8,3,13,0.04,8,Rain,348
2012-10-4,78,63,48,57,51,36,100,73,46,30.07,30.00,29.92,10,9,4,24,9,32,0.01,3,,221
2012-10-5,52,46,39,34,28,21,73,53,33,30.14,30.08,30.04,10,10,10,14,6,23,0.00,2,,266
2012-10-6,49,41,33,28,27,24,75,59,42,30.18,30.12,30.05,10,10,10,16,6,25,0.00,4,,293
2012-10-7,51,43,34,29,23,18,64,46,27,30.19,30.16,30.12,10,10,10,13,5,21,0.00,4,,279
2012-10-8,60,47,33,31,27,23,69,48,27,30.15,30.07,29.97,10,10,10,26,14,36,0.00,0,,206
2012-10-9,65,53,40,40,37,32,93,64,34,29.96,29.86,29.76,10,10,5,30,15,41,0.25,3,Rain,212
2012-10-10,51,43,34,40,30,22,93,64,34,30.18,30.06,29.89,10,10,10,15,6,23,0.00,1,,262
2012-10-11,67,51,35,41,32,29,86,58,29,30.22,30.10,30.01,10,10,9,28,12,39,0.04,2,Rain,229
2012-10-12,50,42,34,36,32,25,89,72,54,30.45,30.38,30.28,10,10,10,14,6,21,T,2,,54
2012-10-13,65,55,45,63,51,33,100,70,39,30.25,29.94,29.77,10,7,2,18,10,25,0.31,7,Rain,183
2012-10-14,68,58,48,63,58,44,100,91,81,29.75,29.57,29.41,10,6,1,25,12,33,0.74,7,Rain-Thunderstorm,199
2012-10-15,55,46,36,45,40,36,100,77,54,29.97,29.88,29.76,10,9,4,13,5,20,0.22,4,,313
2012-10-16,66,52,38,51,44,37,100,76,52,29.96,29.74,29.51,10,10,7,22,11,28,0.00,1,,161
2012-10-17,68,61,53,58,53,48,100,78,56,29.50,29.39,29.25,10,9,2,25,15,35,0.22,5,Rain,182
2012-10-18,53,49,44,52,42,35,96,76,56,29.50,29.40,29.28,10,10,10,30,15,39,0.07,7,Rain,204
2012-10-19,50,46,42,44,42,39,100,86,71,29.63,29.51,29.44,10,10,5,13,4,18,0.05,7,Rain,228
2012-10-20,59,50,41,42,40,36,96,70,43,29.93,29.79,29.66,10,10,8,13,5,17,0.00,3,,265
2012-10-21,59,46,33,52,45,33,100,83,66,30.04,29.99,29.95,10,8,5,15,5,18,0.00,0,,138
2012-10-22,63,55,47,61,55,47,100,90,80,29.97,29.92,29.85,8,4,0,21,3,25,0.53,6,Fog-Rain,138
2012-10-23,63,58,52,63,57,53,100,95,90,29.95,29.90,29.87,3,2,0,8,3,10,0.44,7,Fog-Rain-Thunderstorm,115
2012-10-24,76,67,57,64,60,57,100,84,68,29.91,29.87,29.79,10,7,0,20,10,26,0.00,3,Fog,173
2012-10-25,74,58,41,62,54,37,92,78,64,30.03,29.77,29.63,10,10,6,30,15,38,0.20,5,Rain,220
2012-10-26,49,41,32,32,29,27,82,64,45,30.33,30.27,30.11,10,10,5,18,5,30,0.00,0,,320
2012-10-27,45,38,31,29,26,24,78,64,49,30.35,30.31,30.28,10,10,10,15,7,21,0.00,1,,335
2012-10-28,47,41,34,32,30,25,82,68,53,30.32,30.30,30.28,10,10,10,21,9,26,0.00,5,,349
2012-10-29,49,42,34,32,29,26,82,64,46,30.32,30.24,30.06,10,10,8,22,10,31,0.00,0,,338
2012-10-30,46,42,38,28,26,23,70,58,45,30.04,29.87,29.78,10,10,10,25,14,39,0.00,3,,333
2012-10-31,48,40,32,31,26,19,70,60,50,29.87,29.83,29.78,10,10,10,16,9,26,0.00,5,,306